Strona główna
METAR-TAF:

METAR-TAF

Lotnisko :

Guaratinguetá, São Paulo, Brazylia

Szerokość geograficzna: 22-47S, Długość geograficzna: 045-12W, wysokość: 537 m

Aktualna obserwacja pogody

Raport powstał 23 minut temu, godzina 13:00 UTC
Wiatr 3 kt od północ, zmienny między zachodnio-północny zachód i wschód
Temperatura 20°C
Wilgotność 73%
Ciśnienie 1022 hPa
Widzialność: 8000 m
Rozproszone chmury na wysokości 2000 ft
Rozproszone chmury na wysokości 9000 ft

METAR: SBGW 151300Z 35003KT 290V090 8000 SCT020 SCT090 20/15 Q1022

czas: 10:23 (13:23 UTC)

Prognoza

Raport powstał 4 godziny i 23 minut temu, godzina 09:00 UTC
Prognoza ważna od 15 godzina 12 UTC do 15 godzina 24 UTC
Wiatr 5 kt od wschodnio-północny wschód
Widzialność: 8000 m
Rozproszone chmury na wysokości 2000 ft
Stopniowe zmiany
od 15 godzina 13 UTC do 15 godzina 15 UTC
Widzialność 10 km lub więcej
Rozproszone chmury na wysokości 3000 ft

TAF: SBGW 150900Z 1512/1524 06005KT 8000 SCT020 TX23/1518Z TN16/1523Z BECMG 1513/1515 9999 SCT030 RMK PDW

Obserwacja i prognoza pogody dla ponad 4000 lotnisk (raport METAR i TAF).

Dostępne stacje oznaczono żółtymi i czerwonymi punktami na mapie.

Najedź kursorem aby zobaczyć nazwę stacji.

Kliknij aby zobaczyć obserwacje i prognozy pogody.

Aby zmienić mapę: kliknij na zielony przycisk z czarnym krzyżykiem, aby powiększyć; na zielony przycisk z myślnikiem, aby pomniejszyć; na zielone strzałki, aby przejść do map sąsiednich.


METAR-TAF: